N281DF KGKT-KLEX
Flight info
| Callsign | N281DF |
|---|---|
| Flight time | 0h 44m |
| Altitude | 10000 |
| Route | LOZ |
| Aircraft | BE58/L-SDFGRY/C |
Departure
| Time | 2026-04-25 15:33 |
|---|---|
| Airport | Gatlinburg-Pigeon Forge Airport (KGKT) |
Arrival
| Time | 2026-04-25 16:17 |
|---|---|
| Airport | Blue Grass Airport (KLEX) |
| Time | Latitude | Longitude | Altitude | Speed | Heading |
|---|---|---|---|---|---|
| 2026-04-25 15:06 | 35.86054 | -83.53831 | 993 ft | 0 kts | 279° |
| 2026-04-25 15:21 | 35.86038 | -83.53843 | 1042 ft | 7 kts | 189° |
| 2026-04-25 15:21 | 35.85989 | -83.53799 | 1008 ft | 10 kts | 123° |
| 2026-04-25 15:21 | 35.85940 | -83.53728 | 1028 ft | 13 kts | 103° |
| 2026-04-25 15:21 | 35.85923 | -83.53608 | 1000 ft | 16 kts | 98° |
| 2026-04-25 15:22 | 35.85905 | -83.53463 | 1000 ft | 19 kts | 99° |
| 2026-04-25 15:22 | 35.85885 | -83.53296 | 1000 ft | 20 kts | 98° |
| 2026-04-25 15:22 | 35.85863 | -83.53121 | 1001 ft | 21 kts | 99° |
| 2026-04-25 15:22 | 35.85840 | -83.52935 | 1001 ft | 23 kts | 98° |
| 2026-04-25 15:23 | 35.85817 | -83.52746 | 1001 ft | 22 kts | 99° |
| 2026-04-25 15:23 | 35.85793 | -83.52565 | 1001 ft | 20 kts | 99° |
| 2026-04-25 15:23 | 35.85773 | -83.52401 | 1001 ft | 18 kts | 98° |
| 2026-04-25 15:23 | 35.85754 | -83.52252 | 1000 ft | 17 kts | 98° |
| 2026-04-25 15:24 | 35.85739 | -83.52123 | 1000 ft | 12 kts | 95° |
| 2026-04-25 15:24 | 35.85725 | -83.52077 | 1000 ft | 0 kts | 187° |
| 2026-04-25 15:31 | 35.85717 | -83.52078 | 1000 ft | 6 kts | 186° |
| 2026-04-25 15:31 | 35.85682 | -83.52121 | 999 ft | 9 kts | 288° |
| 2026-04-25 15:31 | 35.85683 | -83.52131 | 999 ft | 0 kts | 279° |
| 2026-04-25 15:32 | 35.85708 | -83.52322 | 1001 ft | 56 kts | 278° |
| 2026-04-25 15:32 | 35.85803 | -83.53086 | 1041 ft | 114 kts | 278° |
| 2026-04-25 15:33 | 35.86046 | -83.55213 | 1711 ft | 134 kts | 281° |
| 2026-04-25 15:33 | 35.86239 | -83.56361 | 2055 ft | 138 kts | 281° |
| 2026-04-25 15:33 | 35.86434 | -83.57530 | 2394 ft | 140 kts | 281° |
| 2026-04-25 15:33 | 35.86628 | -83.58713 | 2725 ft | 142 kts | 280° |
| 2026-04-25 15:34 | 35.86830 | -83.59895 | 3042 ft | 143 kts | 280° |
| 2026-04-25 15:34 | 35.87050 | -83.61142 | 3328 ft | 155 kts | 280° |
| 2026-04-25 15:34 | 35.87443 | -83.62414 | 3573 ft | 163 kts | 300° |
| 2026-04-25 15:34 | 35.87936 | -83.63151 | 3749 ft | 167 kts | 314° |
| 2026-04-25 15:35 | 35.90412 | -83.64671 | 4351 ft | 176 kts | 337° |
| 2026-04-25 15:35 | 35.91590 | -83.65140 | 4613 ft | 179 kts | 339° |
| 2026-04-25 15:35 | 35.92783 | -83.65603 | 4865 ft | 181 kts | 339° |
| 2026-04-25 15:36 | 35.95186 | -83.66571 | 5361 ft | 182 kts | 338° |
| 2026-04-25 15:36 | 35.96389 | -83.67059 | 5612 ft | 182 kts | 338° |
| 2026-04-25 15:36 | 35.97584 | -83.67544 | 5864 ft | 183 kts | 338° |
| 2026-04-25 15:37 | 35.98799 | -83.68036 | 6117 ft | 184 kts | 338° |
| 2026-04-25 15:37 | 36.00017 | -83.68531 | 6367 ft | 184 kts | 338° |
| 2026-04-25 15:37 | 36.01241 | -83.69027 | 6609 ft | 186 kts | 338° |
| 2026-04-25 15:37 | 36.02475 | -83.69528 | 6848 ft | 186 kts | 338° |
| 2026-04-25 15:38 | 36.03706 | -83.70028 | 7089 ft | 186 kts | 338° |
| 2026-04-25 15:38 | 36.04942 | -83.70530 | 7331 ft | 187 kts | 338° |
| 2026-04-25 15:38 | 36.06177 | -83.71031 | 7573 ft | 187 kts | 339° |
| 2026-04-25 15:38 | 36.07409 | -83.71532 | 7816 ft | 188 kts | 339° |
| 2026-04-25 15:39 | 36.08652 | -83.72037 | 8067 ft | 188 kts | 339° |
| 2026-04-25 15:39 | 36.09884 | -83.72537 | 8307 ft | 189 kts | 338° |
| 2026-04-25 15:39 | 36.11136 | -83.73047 | 8559 ft | 190 kts | 338° |
| 2026-04-25 15:39 | 36.12392 | -83.73558 | 8811 ft | 190 kts | 339° |
| 2026-04-25 15:40 | 36.13653 | -83.74070 | 9068 ft | 191 kts | 339° |
| 2026-04-25 15:40 | 36.14079 | -83.74244 | 9154 ft | 191 kts | 339° |
| 2026-04-25 15:40 | 36.16181 | -83.75100 | 9578 ft | 191 kts | 339° |
| 2026-04-25 15:40 | 36.17451 | -83.75618 | 9836 ft | 192 kts | 339° |
| 2026-04-25 15:41 | 36.18649 | -83.76105 | 9995 ft | 197 kts | 339° |
| 2026-04-25 15:41 | 36.20036 | -83.76687 | 10000 ft | 207 kts | 338° |
| 2026-04-25 15:41 | 36.21404 | -83.77315 | 10001 ft | 213 kts | 337° |
| 2026-04-25 15:41 | 36.22790 | -83.77944 | 10001 ft | 216 kts | 338° |
| 2026-04-25 15:42 | 36.24207 | -83.78578 | 10003 ft | 217 kts | 338° |
| 2026-04-25 15:42 | 36.25630 | -83.79211 | 10000 ft | 218 kts | 338° |
| 2026-04-25 15:42 | 36.27056 | -83.79849 | 9995 ft | 218 kts | 338° |
| 2026-04-25 15:42 | 36.28483 | -83.80488 | 9992 ft | 218 kts | 338° |
| 2026-04-25 15:43 | 36.29910 | -83.81126 | 10005 ft | 218 kts | 338° |
| 2026-04-25 15:43 | 36.31338 | -83.81766 | 9999 ft | 218 kts | 338° |
| 2026-04-25 15:43 | 36.32771 | -83.82409 | 10005 ft | 220 kts | 338° |
| 2026-04-25 15:43 | 36.34214 | -83.83056 | 10009 ft | 221 kts | 338° |
| 2026-04-25 15:44 | 36.35672 | -83.83709 | 10007 ft | 223 kts | 337° |
| 2026-04-25 15:44 | 36.37135 | -83.84365 | 10010 ft | 223 kts | 337° |
| 2026-04-25 15:44 | 36.38589 | -83.85018 | 10008 ft | 222 kts | 337° |
| 2026-04-25 15:44 | 36.40039 | -83.85668 | 10011 ft | 221 kts | 337° |
| 2026-04-25 15:45 | 36.41498 | -83.86323 | 10007 ft | 224 kts | 337° |
| 2026-04-25 15:45 | 36.42948 | -83.86976 | 10013 ft | 225 kts | 337° |
| 2026-04-25 15:45 | 36.44416 | -83.87636 | 10011 ft | 224 kts | 337° |
| 2026-04-25 15:45 | 36.44909 | -83.87857 | 10011 ft | 223 kts | 337° |
| 2026-04-25 15:46 | 36.47338 | -83.88950 | 10002 ft | 222 kts | 337° |
| 2026-04-25 15:46 | 36.48790 | -83.89602 | 10003 ft | 221 kts | 337° |
| 2026-04-25 15:46 | 36.50244 | -83.90258 | 10009 ft | 223 kts | 337° |
| 2026-04-25 15:46 | 36.51696 | -83.90912 | 10008 ft | 226 kts | 337° |
| 2026-04-25 15:47 | 36.53179 | -83.91581 | 10005 ft | 226 kts | 337° |
| 2026-04-25 15:47 | 36.54645 | -83.92240 | 10003 ft | 224 kts | 338° |
| 2026-04-25 15:47 | 36.56105 | -83.92899 | 10001 ft | 222 kts | 337° |
| 2026-04-25 15:47 | 36.57548 | -83.93551 | 10003 ft | 221 kts | 337° |
| 2026-04-25 15:48 | 36.58996 | -83.94203 | 10001 ft | 219 kts | 337° |
| 2026-04-25 15:48 | 36.60430 | -83.94852 | 10005 ft | 219 kts | 336° |
| 2026-04-25 15:48 | 36.61864 | -83.95501 | 10007 ft | 219 kts | 336° |
| 2026-04-25 15:48 | 36.63298 | -83.96149 | 10010 ft | 219 kts | 336° |
| 2026-04-25 15:49 | 36.64716 | -83.96789 | 10013 ft | 220 kts | 337° |
| 2026-04-25 15:49 | 36.66158 | -83.97442 | 10013 ft | 220 kts | 336° |
| 2026-04-25 15:49 | 36.67594 | -83.98091 | 10013 ft | 219 kts | 336° |
| 2026-04-25 15:49 | 36.69024 | -83.98739 | 10017 ft | 218 kts | 337° |
| 2026-04-25 15:50 | 36.70447 | -83.99383 | 10019 ft | 218 kts | 336° |
| 2026-04-25 15:50 | 36.71874 | -84.00029 | 10020 ft | 218 kts | 336° |
| 2026-04-25 15:50 | 36.73302 | -84.00676 | 10023 ft | 218 kts | 336° |
| 2026-04-25 15:50 | 36.74729 | -84.01323 | 10024 ft | 218 kts | 336° |
| 2026-04-25 15:51 | 36.76156 | -84.01971 | 10025 ft | 218 kts | 336° |
| 2026-04-25 15:51 | 36.76639 | -84.02190 | 10026 ft | 218 kts | 336° |
| 2026-04-25 15:51 | 36.79008 | -84.03264 | 10028 ft | 217 kts | 336° |
| 2026-04-25 15:51 | 36.80432 | -84.03911 | 10028 ft | 218 kts | 336° |
| 2026-04-25 15:52 | 36.81837 | -84.04550 | 10029 ft | 218 kts | 336° |
| 2026-04-25 15:52 | 36.83264 | -84.05197 | 10030 ft | 218 kts | 336° |
| 2026-04-25 15:52 | 36.84691 | -84.05845 | 10040 ft | 218 kts | 336° |
| 2026-04-25 15:52 | 36.86117 | -84.06493 | 10040 ft | 217 kts | 336° |
| 2026-04-25 15:53 | 36.87534 | -84.07138 | 10042 ft | 217 kts | 336° |
| 2026-04-25 15:53 | 36.88949 | -84.07783 | 10040 ft | 216 kts | 336° |
| 2026-04-25 15:53 | 36.90362 | -84.08426 | 10039 ft | 216 kts | 336° |
| 2026-04-25 15:53 | 36.91776 | -84.09069 | 10036 ft | 216 kts | 336° |
| 2026-04-25 15:54 | 36.93185 | -84.09712 | 10035 ft | 216 kts | 336° |
| 2026-04-25 15:54 | 36.94596 | -84.10355 | 10037 ft | 215 kts | 336° |
| 2026-04-25 15:54 | 36.96011 | -84.11001 | 10009 ft | 217 kts | 336° |
| 2026-04-25 15:54 | 36.97427 | -84.11647 | 10010 ft | 216 kts | 336° |
| 2026-04-25 15:55 | 36.98824 | -84.12283 | 10015 ft | 216 kts | 336° |
| 2026-04-25 15:55 | 37.00234 | -84.12927 | 10018 ft | 216 kts | 336° |
| 2026-04-25 15:55 | 37.01645 | -84.13572 | 10018 ft | 216 kts | 336° |
| 2026-04-25 15:55 | 37.03052 | -84.14216 | 10019 ft | 215 kts | 336° |
| 2026-04-25 15:56 | 37.04462 | -84.14860 | 10014 ft | 215 kts | 336° |
| 2026-04-25 15:56 | 37.05869 | -84.15503 | 10013 ft | 215 kts | 336° |
| 2026-04-25 15:56 | 37.06801 | -84.15929 | 10013 ft | 215 kts | 336° |
| 2026-04-25 15:56 | 37.08206 | -84.16572 | 10014 ft | 215 kts | 336° |
| 2026-04-25 15:57 | 37.09612 | -84.17216 | 10019 ft | 215 kts | 337° |
| 2026-04-25 15:57 | 37.11017 | -84.17858 | 10019 ft | 215 kts | 337° |
| 2026-04-25 15:57 | 37.12419 | -84.18500 | 10018 ft | 214 kts | 337° |
| 2026-04-25 15:57 | 37.13821 | -84.19143 | 10014 ft | 214 kts | 337° |
| 2026-04-25 15:58 | 37.15221 | -84.19785 | 10017 ft | 214 kts | 337° |
| 2026-04-25 15:58 | 37.16624 | -84.20429 | 10009 ft | 214 kts | 337° |
| 2026-04-25 15:58 | 37.18026 | -84.21072 | 10013 ft | 214 kts | 337° |
| 2026-04-25 15:58 | 37.19425 | -84.21715 | 10006 ft | 214 kts | 337° |
| 2026-04-25 15:59 | 37.20826 | -84.22358 | 10004 ft | 214 kts | 337° |
| 2026-04-25 15:59 | 37.22224 | -84.22999 | 10003 ft | 214 kts | 337° |
| 2026-04-25 15:59 | 37.23606 | -84.23635 | 10000 ft | 214 kts | 337° |
| 2026-04-25 15:59 | 37.25010 | -84.24281 | 10002 ft | 215 kts | 337° |
| 2026-04-25 16:00 | 37.26414 | -84.24926 | 9996 ft | 215 kts | 337° |
| 2026-04-25 16:00 | 37.27363 | -84.25363 | 9974 ft | 215 kts | 337° |
| 2026-04-25 16:00 | 37.29224 | -84.26219 | 9978 ft | 214 kts | 337° |
| 2026-04-25 16:00 | 37.30619 | -84.26861 | 9982 ft | 213 kts | 337° |
| 2026-04-25 16:01 | 37.32013 | -84.27503 | 9985 ft | 213 kts | 337° |
| 2026-04-25 16:01 | 37.33408 | -84.28146 | 9987 ft | 213 kts | 337° |
| 2026-04-25 16:01 | 37.34802 | -84.28789 | 9996 ft | 213 kts | 338° |
| 2026-04-25 16:01 | 37.36189 | -84.29429 | 9997 ft | 212 kts | 339° |
| 2026-04-25 16:02 | 37.37574 | -84.30068 | 9998 ft | 211 kts | 338° |
| 2026-04-25 16:02 | 37.38863 | -84.30937 | 10003 ft | 211 kts | 325° |
| 2026-04-25 16:02 | 37.40019 | -84.32065 | 10006 ft | 210 kts | 321° |
| 2026-04-25 16:02 | 37.41151 | -84.33191 | 10009 ft | 210 kts | 322° |
| 2026-04-25 16:03 | 37.42326 | -84.34294 | 10011 ft | 210 kts | 323° |
| 2026-04-25 16:03 | 37.43505 | -84.35388 | 10013 ft | 210 kts | 323° |
| 2026-04-25 16:03 | 37.44681 | -84.36486 | 10016 ft | 210 kts | 323° |
| 2026-04-25 16:03 | 37.45853 | -84.37584 | 9989 ft | 210 kts | 323° |
| 2026-04-25 16:04 | 37.47029 | -84.38685 | 9991 ft | 210 kts | 323° |
| 2026-04-25 16:04 | 37.48202 | -84.39783 | 9994 ft | 210 kts | 323° |
| 2026-04-25 16:04 | 37.49375 | -84.40883 | 9998 ft | 210 kts | 323° |
| 2026-04-25 16:04 | 37.50549 | -84.41984 | 10000 ft | 210 kts | 323° |
| 2026-04-25 16:05 | 37.51721 | -84.43083 | 10003 ft | 210 kts | 323° |
| 2026-04-25 16:05 | 37.52881 | -84.44171 | 10004 ft | 210 kts | 323° |
| 2026-04-25 16:05 | 37.55230 | -84.46375 | 10010 ft | 211 kts | 323° |
| 2026-04-25 16:06 | 37.56405 | -84.47479 | 10007 ft | 211 kts | 323° |
| 2026-04-25 16:06 | 37.57581 | -84.48584 | 10010 ft | 210 kts | 323° |
| 2026-04-25 16:06 | 37.58756 | -84.49689 | 10010 ft | 211 kts | 323° |
| 2026-04-25 16:06 | 37.59925 | -84.50787 | 10008 ft | 211 kts | 324° |
| 2026-04-25 16:07 | 37.61098 | -84.51889 | 10007 ft | 210 kts | 323° |
| 2026-04-25 16:07 | 37.61879 | -84.52624 | 9938 ft | 212 kts | 323° |
| 2026-04-25 16:07 | 37.63460 | -84.54114 | 9677 ft | 216 kts | 324° |
| 2026-04-25 16:07 | 37.64666 | -84.55249 | 9474 ft | 217 kts | 324° |
| 2026-04-25 16:08 | 37.65881 | -84.56395 | 9269 ft | 218 kts | 324° |
| 2026-04-25 16:08 | 37.67102 | -84.57543 | 9064 ft | 219 kts | 324° |
| 2026-04-25 16:08 | 37.68321 | -84.58693 | 8808 ft | 218 kts | 324° |
| 2026-04-25 16:08 | 37.69533 | -84.59838 | 8554 ft | 217 kts | 324° |
| 2026-04-25 16:09 | 37.70737 | -84.60975 | 8303 ft | 215 kts | 324° |
| 2026-04-25 16:09 | 37.71938 | -84.62108 | 8036 ft | 216 kts | 324° |
| 2026-04-25 16:09 | 37.73139 | -84.63243 | 7737 ft | 214 kts | 324° |
| 2026-04-25 16:09 | 37.74330 | -84.64368 | 7442 ft | 213 kts | 324° |
| 2026-04-25 16:10 | 37.75509 | -84.65484 | 7154 ft | 212 kts | 324° |
| 2026-04-25 16:10 | 37.76689 | -84.66598 | 6868 ft | 212 kts | 325° |
| 2026-04-25 16:10 | 37.77869 | -84.67713 | 6606 ft | 210 kts | 325° |
| 2026-04-25 16:10 | 37.79017 | -84.68803 | 6369 ft | 208 kts | 326° |
| 2026-04-25 16:11 | 37.80178 | -84.69902 | 6114 ft | 208 kts | 326° |
| 2026-04-25 16:11 | 37.81322 | -84.70986 | 5999 ft | 201 kts | 325° |
| 2026-04-25 16:11 | 37.82417 | -84.72023 | 5988 ft | 192 kts | 325° |
| 2026-04-25 16:11 | 37.83458 | -84.73012 | 5981 ft | 182 kts | 326° |
| 2026-04-25 16:12 | 37.84452 | -84.73953 | 5982 ft | 175 kts | 326° |
| 2026-04-25 16:12 | 37.85409 | -84.74861 | 5979 ft | 169 kts | 326° |
| 2026-04-25 16:12 | 37.86373 | -84.75669 | 5963 ft | 165 kts | 342° |
| 2026-04-25 16:12 | 37.87095 | -84.75744 | 5863 ft | 167 kts | 7° |
| 2026-04-25 16:13 | 37.88657 | -84.75292 | 5660 ft | 171 kts | 13° |
| 2026-04-25 16:13 | 37.89805 | -84.74931 | 5434 ft | 175 kts | 13° |
| 2026-04-25 16:13 | 37.90987 | -84.74463 | 5090 ft | 181 kts | 26° |
| 2026-04-25 16:13 | 37.92019 | -84.73513 | 4752 ft | 185 kts | 37° |
| 2026-04-25 16:14 | 37.93010 | -84.72453 | 4401 ft | 187 kts | 38° |
| 2026-04-25 16:14 | 37.93988 | -84.71363 | 4027 ft | 186 kts | 40° |
| 2026-04-25 16:14 | 37.94940 | -84.70289 | 3626 ft | 181 kts | 39° |
| 2026-04-25 16:14 | 37.95874 | -84.69252 | 3227 ft | 177 kts | 39° |
| 2026-04-25 16:15 | 37.96790 | -84.68223 | 2822 ft | 172 kts | 40° |
| 2026-04-25 16:15 | 37.97649 | -84.67255 | 2453 ft | 157 kts | 39° |
| 2026-04-25 16:15 | 37.98435 | -84.66370 | 2161 ft | 144 kts | 39° |
| 2026-04-25 16:15 | 37.99159 | -84.65556 | 1973 ft | 135 kts | 40° |
| 2026-04-25 16:16 | 37.99858 | -84.64774 | 1785 ft | 134 kts | 39° |
| 2026-04-25 16:16 | 38.00533 | -84.64018 | 1610 ft | 122 kts | 39° |
| 2026-04-25 16:16 | 38.01138 | -84.63335 | 1446 ft | 111 kts | 38° |
| 2026-04-25 16:16 | 38.01696 | -84.62714 | 1338 ft | 105 kts | 38° |
| 2026-04-25 16:17 | 38.02242 | -84.62100 | 1210 ft | 105 kts | 40° |
| 2026-04-25 16:17 | 38.02794 | -84.61483 | 1108 ft | 106 kts | 41° |
| 2026-04-25 16:17 | 38.03317 | -84.60899 | 1055 ft | 86 kts | 41° |
| 2026-04-25 16:17 | 38.03650 | -84.60523 | 1052 ft | 40 kts | 42° |
| 2026-04-25 16:18 | 38.03786 | -84.60412 | 1051 ft | 13 kts | 330° |
| 2026-04-25 16:18 | 38.03806 | -84.60437 | 1051 ft | 12 kts | 314° |
| 2026-04-25 16:18 | 38.03902 | -84.60540 | 1050 ft | 10 kts | 345° |
| 2026-04-25 16:18 | 38.03959 | -84.60591 | 1049 ft | 11 kts | 292° |
| 2026-04-25 16:19 | 38.03960 | -84.60687 | 1049 ft | 11 kts | 259° |
| 2026-04-25 16:19 | 38.03947 | -84.60792 | 1050 ft | 13 kts | 263° |
| 2026-04-25 16:19 | 38.03938 | -84.60917 | 1049 ft | 15 kts | 265° |
| 2026-04-25 16:20 | 38.03897 | -84.61123 | 1050 ft | 9 kts | 171° |
| 2026-04-25 16:20 | 38.03860 | -84.61173 | 1050 ft | 10 kts | 217° |
| 2026-04-25 16:20 | 38.03831 | -84.61284 | 1050 ft | 0 kts | 351° |